Time;durP1;ratioP1;P1;durP2;ratioP2;P2;SDS_P1;SDS_P2;PMS_P1;PMS_P2;Temp;Humidity;BMP_temperature;BMP_pressure;BME280_temperature;BME280_humidity;BME280_pressure;Samples;Min_cycle;Max_cycle;Signal;HPM_P1;HPM_P2
2024/04/09 00:05:08;;;;;;;;;8.33;8.33;;;;;;;;6492806;31;9013;-63
2024/04/09 00:11:21;;;;;;;;;8.33;7.00;;;;;;;;6492134;46;9061;-62
2024/04/09 00:17:25;;;;;;;;;8.00;8.00;;;;;;;;6493253;39;8939;-63
2024/04/09 00:23:28;;;;;;;;;15.67;13.33;;;;;;;;6492711;39;8925;-62
2024/04/09 00:29:31;;;;;;;;;27.67;26.33;;;;;;;;6537083;36;9586;-62
2024/04/09 00:35:35;;;;;;;;;47.00;37.00;;;;;;;;6493542;39;8961;-61
2024/04/09 00:41:37;;;;;;;;;35.50;29.50;;;;;;;;6492305;46;8916;-63
2024/04/09 00:47:38;;;;;;;;;31.75;30.25;;;;;;;;6492078;46;8815;-63
2024/04/09 00:53:43;;;;;;;;;30.25;25.50;;;;;;;;6492160;39;8967;-62
2024/04/09 00:59:45;;;;;;;;;13.00;10.00;;;;;;;;6491572;46;8882;-62
2024/04/09 01:05:46;;;;;;;;;25.50;23.00;;;;;;;;6492585;46;8933;-61
2024/04/09 01:11:47;;;;;;;;;20.00;17.67;;;;;;;;6491797;31;8862;-63
2024/04/09 01:17:50;;;;;;;;;19.33;17.33;;;;;;;;6492583;31;8838;-62
2024/04/09 01:23:53;;;;;;;;;15.00;14.33;;;;;;;;6491058;46;8905;-61
2024/04/09 01:29:55;;;;;;;;;12.00;12.00;;;;;;;;6491570;39;8904;-61
2024/04/09 01:35:56;;;;;;;;;13.33;13.33;;;;;;;;6312186;31;10000349;-64
2024/04/09 01:41:58;;;;;;;;;19.00;15.00;;;;;;;;6490904;39;12443;-62
2024/04/09 01:47:59;;;;;;;;;15.33;13.67;;;;;;;;6492198;39;8854;-63
2024/04/09 01:54:00;;;;;;;;;15.33;13.33;;;;;;;;6492023;39;8853;-62
2024/04/09 02:00:11;;;;;;;;;12.33;11.00;;;;;;;;6491221;39;8933;-63
2024/04/09 02:06:16;;;;;;;;;13.33;12.00;;;;;;;;6491883;47;8845;-61
2024/04/09 02:12:18;;;;;;;;;11.67;11.67;;;;;;;;6491564;31;8838;-62
2024/04/09 02:18:21;;;;;;;;;13.67;11.33;;;;;;;;6491426;47;8935;-63
2024/04/09 02:24:22;;;;;;;;;12.50;12.50;;;;;;;;6490947;39;8893;-62
2024/04/09 02:30:23;;;;;;;;;17.33;16.33;;;;;;;;6491155;39;9065;-62
2024/04/09 02:36:25;;;;;;;;;17.00;15.00;;;;;;;;6492592;39;9090;-61
2024/04/09 02:42:28;;;;;;;;;20.50;18.25;;;;;;;;6492992;39;8877;-62
2024/04/09 02:48:30;;;;;;;;;20.67;19.67;;;;;;;;6491616;46;8893;-62
2024/04/09 02:54:31;;;;;;;;;21.75;19.00;;;;;;;;6491264;39;9614;-64
2024/04/09 03:00:32;;;;;;;;;20.75;19.75;;;;;;;;6492044;31;8902;-62
2024/04/09 03:06:33;;;;;;;;;20.25;17.25;;;;;;;;6492391;39;8853;-63
2024/04/09 03:12:35;;;;;;;;;21.33;16.00;;;;;;;;6491167;46;8874;-63
2024/04/09 03:18:38;;;;;;;;;24.25;23.00;;;;;;;;6490924;46;9027;-62
2024/04/09 03:24:40;;;;;;;;;22.25;21.50;;;;;;;;6490803;39;8886;-64
2024/04/09 03:30:41;;;;;;;;;20.25;17.50;;;;;;;;6490855;39;8939;-63
2024/04/09 03:36:42;;;;;;;;;27.50;22.50;;;;;;;;6491013;31;9004;-63
2024/04/09 03:42:45;;;;;;;;;20.75;19.25;;;;;;;;6490334;39;8934;-63
2024/04/09 03:48:48;;;;;;;;;30.25;28.00;;;;;;;;6490973;31;8847;-63
2024/04/09 03:54:49;;;;;;;;;27.50;26.75;;;;;;;;6489791;39;8917;-63
2024/04/09 04:07:35;;;;;;;;;29.00;23.25;;;;;;;;6484872;39;369107;-61
2024/04/09 04:13:38;;;;;;;;;27.75;25.25;;;;;;;;6492599;39;8881;-61
2024/04/09 04:19:39;;;;;;;;;31.75;29.75;;;;;;;;6493570;46;8893;-62
2024/04/09 04:25:41;;;;;;;;;30.75;29.25;;;;;;;;6493072;39;8913;-71
2024/04/09 04:31:43;;;;;;;;;31.25;29.50;;;;;;;;6492291;39;9084;-71
2024/04/09 04:37:44;;;;;;;;;27.00;24.75;;;;;;;;6493232;39;8933;-67
2024/04/09 04:43:45;;;;;;;;;31.50;28.75;;;;;;;;6493290;46;9101;-66
2024/04/09 04:49:47;;;;;;;;;31.75;28.25;;;;;;;;6494237;46;9036;-68
2024/04/09 04:55:49;;;;;;;;;34.00;30.00;;;;;;;;6493115;39;9030;-68
2024/04/09 05:01:50;;;;;;;;;46.00;39.75;;;;;;;;6492794;46;8986;-68
2024/04/09 05:07:53;;;;;;;;;36.00;34.00;;;;;;;;6493981;46;9009;-66
2024/04/09 05:13:56;;;;;;;;;39.67;35.00;;;;;;;;6493708;39;8861;-67
2024/04/09 05:19:58;;;;;;;;;43.00;39.00;;;;;;;;6493627;46;8918;-67
2024/04/09 05:25:59;;;;;;;;;35.00;33.50;;;;;;;;6492475;39;8928;-68
2024/04/09 05:32:01;;;;;;;;;38.75;34.50;;;;;;;;6493163;39;8914;-69
2024/04/09 05:38:03;;;;;;;;;54.00;41.75;;;;;;;;6493395;39;8882;-69
2024/04/09 05:44:04;;;;;;;;;50.50;40.75;;;;;;;;6493369;47;9033;-69
2024/04/09 05:50:05;;;;;;;;;41.67;36.67;;;;;;;;6492917;39;9576;-68
2024/04/09 05:56:08;;;;;;;;;38.00;36.00;;;;;;;;6493177;39;8941;-69
2024/04/09 06:02:10;;;;;;;;;46.00;39.00;;;;;;;;6492882;39;9556;-67
2024/04/09 06:08:12;;;;;;;;;29.33;26.33;;;;;;;;6492458;39;8871;-68
2024/04/09 06:14:15;;;;;;;;;27.33;23.00;;;;;;;;6492752;31;8856;-68
2024/04/09 06:20:19;;;;;;;;;17.33;16.00;;;;;;;;6493669;39;8908;-68
2024/04/09 06:26:21;;;;;;;;;20.33;19.00;;;;;;;;6493633;31;8912;-68
2024/04/09 06:32:24;;;;;;;;;22.33;19.67;;;;;;;;6490342;39;8865;-67
2024/04/09 06:38:26;;;;;;;;;21.33;20.33;;;;;;;;6488372;46;8976;-69
2024/04/09 06:44:26;;;;;;;;;22.67;20.00;;;;;;;;6491563;46;9011;-68
2024/04/09 06:50:28;;;;;;;;;23.00;19.00;;;;;;;;6491406;39;9022;-67
2024/04/09 06:56:31;;;;;;;;;18.33;18.00;;;;;;;;6492632;46;8985;-68
2024/04/09 07:02:33;;;;;;;;;19.33;17.67;;;;;;;;6492755;39;8943;-66
2024/04/09 07:08:35;;;;;;;;;23.67;18.67;;;;;;;;6493565;31;8887;-67
2024/04/09 07:14:36;;;;;;;;;16.67;15.67;;;;;;;;6494141;31;8899;-69
2024/04/09 07:20:39;;;;;;;;;44.67;36.33;;;;;;;;6492623;39;8936;-68
2024/04/09 07:26:41;;;;;;;;;16.33;16.33;;;;;;;;6493050;39;8887;-67
2024/04/09 07:32:43;;;;;;;;;18.00;17.33;;;;;;;;6491819;39;9579;-67
2024/04/09 07:38:45;;;;;;;;;62.00;48.33;;;;;;;;6492579;31;9055;-69
2024/04/09 07:44:46;;;;;;;;;39.00;35.33;;;;;;;;6491358;39;9421;-68
2024/04/09 07:50:51;;;;;;;;;9.00;8.00;;;;;;;;6492561;31;8899;-69
2024/04/09 07:56:52;;;;;;;;;9.50;9.50;;;;;;;;6492826;39;8910;-69
2024/04/09 08:02:57;;;;;;;;;28.00;27.00;;;;;;;;6490495;31;9094;-68
2024/04/09 08:08:59;;;;;;;;;22.33;21.33;;;;;;;;6489568;46;8913;-66
2024/04/09 08:15:04;;;;;;;;;8.75;8.75;;;;;;;;6491877;46;9021;-68
2024/04/09 08:21:05;;;;;;;;;4.75;3.75;;;;;;;;6491516;39;9028;-69
2024/04/09 08:27:06;;;;;;;;;13.25;12.00;;;;;;;;6492103;39;9586;-68
2024/04/09 08:33:08;;;;;;;;;70.67;54.67;;;;;;;;6490540;46;8920;-69
2024/04/09 08:39:09;;;;;;;;;57.67;47.33;;;;;;;;6491525;39;8955;-67
2024/04/09 08:45:14;;;;;;;;;44.00;36.67;;;;;;;;6487200;39;9612;-71
2024/04/09 08:51:19;;;;;;;;;5.50;5.50;;;;;;;;6487507;39;8997;-68
2024/04/09 08:57:26;;;;;;;;;8.25;7.75;;;;;;;;6490493;39;9152;-71
2024/04/09 09:03:27;;;;;;;;;8.25;8.25;;;;;;;;6488440;39;9828;-69
2024/04/09 09:09:31;;;;;;;;;7.00;6.00;;;;;;;;6490851;39;9603;-68
2024/04/09 09:15:32;;;;;;;;;17.75;17.75;;;;;;;;6491547;39;9009;-70
2024/04/09 09:21:33;;;;;;;;;12.25;12.00;;;;;;;;6487497;31;8966;-68
2024/04/09 09:27:37;;;;;;;;;13.50;13.25;;;;;;;;6487828;39;8961;-69
2024/04/09 09:33:43;;;;;;;;;26.75;23.75;;;;;;;;6489874;47;8933;-69
2024/04/09 09:39:46;;;;;;;;;26.50;25.75;;;;;;;;6488687;39;8959;-69
2024/04/09 09:45:50;;;;;;;;;16.00;16.00;;;;;;;;6488356;47;9135;-70
2024/04/09 09:51:52;;;;;;;;;7.50;7.50;;;;;;;;6493507;46;8849;-71
2024/04/09 09:57:55;;;;;;;;;30.00;28.67;;;;;;;;6494061;39;8873;-69
2024/04/09 10:04:03;;;;;;;;;7.25;7.00;;;;;;;;6493598;31;8964;-70
2024/04/09 10:10:10;;;;;;;;;28.75;26.00;;;;;;;;6491300;39;9660;-70
2024/04/09 10:16:16;;;;;;;;;17.00;15.00;;;;;;;;6492135;39;9112;-70
2024/04/09 10:22:18;;;;;;;;;14.25;11.75;;;;;;;;6491406;46;9010;-71
2024/04/09 10:28:29;;;;;;;;;6.75;6.25;;;;;;;;6492427;46;8877;-72
2024/04/09 10:34:32;;;;;;;;;7.75;6.75;;;;;;;;6493214;31;9056;-69
2024/04/09 10:40:35;;;;;;;;;6.50;6.50;;;;;;;;6492971;31;8931;-69
2024/04/09 10:46:37;;;;;;;;;9.25;9.25;;;;;;;;6493015;39;9011;-70
2024/04/09 10:52:38;;;;;;;;;8.00;8.00;;;;;;;;6491065;46;9100;-68
2024/04/09 10:58:40;;;;;;;;;11.00;9.50;;;;;;;;6492490;39;8885;-69
2024/04/09 11:04:44;;;;;;;;;14.50;11.50;;;;;;;;6490165;46;8941;-70
2024/04/09 11:10:46;;;;;;;;;8.00;8.00;;;;;;;;5858038;39;10000955;-67
2024/04/09 11:16:47;;;;;;;;;8.25;8.25;;;;;;;;6489341;39;12474;-69
2024/04/09 11:22:54;;;;;;;;;36.25;31.50;;;;;;;;6490206;39;8866;-68
2024/04/09 11:28:55;;;;;;;;;14.00;13.00;;;;;;;;6490821;39;8978;-69
2024/04/09 11:34:56;;;;;;;;;20.00;17.25;;;;;;;;6489036;31;9083;-68
2024/04/09 11:40:58;;;;;;;;;8.00;8.00;;;;;;;;6488262;31;8989;-68
2024/04/09 11:46:59;;;;;;;;;20.75;19.50;;;;;;;;6490151;46;8931;-68
2024/04/09 11:53:02;;;;;;;;;12.75;12.75;;;;;;;;6489242;39;8931;-67
2024/04/09 11:59:04;;;;;;;;;19.33;18.00;;;;;;;;6488116;39;8977;-70
2024/04/09 12:05:06;;;;;;;;;7.50;7.50;;;;;;;;6487980;31;9060;-67
2024/04/09 12:11:11;;;;;;;;;25.00;25.00;;;;;;;;6517788;36;8898;-67
2024/04/09 12:17:14;;;;;;;;;46.67;37.33;;;;;;;;6491863;31;8937;-68
2024/04/09 12:23:17;;;;;;;;;10.25;10.25;;;;;;;;6490930;39;8931;-68
2024/04/09 12:29:22;;;;;;;;;67.00;53.67;;;;;;;;6492851;36;8925;-68
2024/04/09 12:35:27;;;;;;;;;8.50;8.50;;;;;;;;6488388;39;8949;-67
2024/04/09 12:41:29;;;;;;;;;6.67;6.67;;;;;;;;6489871;39;8946;-68
2024/04/09 12:47:31;;;;;;;;;10.00;9.50;;;;;;;;6490021;46;9080;-68
2024/04/09 12:53:34;;;;;;;;;6.75;6.75;;;;;;;;6490032;39;9000;-69
2024/04/09 12:59:37;;;;;;;;;73.00;60.00;;;;;;;;6489264;39;9032;-69
2024/04/09 13:05:39;;;;;;;;;13.33;13.00;;;;;;;;6489812;39;8921;-67
2024/04/09 13:11:40;;;;;;;;;15.67;15.67;;;;;;;;6489711;46;9029;-70
2024/04/09 13:17:42;;;;;;;;;51.00;42.00;;;;;;;;6489970;31;8962;-68
2024/04/09 13:23:43;;;;;;;;;22.50;22.50;;;;;;;;6489664;39;8907;-68
2024/04/09 13:29:44;;;;;;;;;3.75;3.75;;;;;;;;6489346;39;9611;-67
2024/04/09 13:35:48;;;;;;;;;64.33;50.00;;;;;;;;6489035;31;9033;-66
2024/04/09 13:41:49;;;;;;;;;61.00;49.00;;;;;;;;6489243;39;9075;-68
2024/04/09 13:47:51;;;;;;;;;45.33;38.00;;;;;;;;6490233;39;9026;-65
2024/04/09 13:53:55;;;;;;;;;59.00;47.67;;;;;;;;6490424;39;8882;-68
2024/04/09 13:59:56;;;;;;;;;8.50;8.50;;;;;;;;6489584;39;8969;-67
2024/04/09 14:05:57;;;;;;;;;59.33;45.33;;;;;;;;6489539;47;8977;-67
2024/04/09 14:11:58;;;;;;;;;81.25;71.25;;;;;;;;6488396;39;8955;-65
2024/04/09 14:18:00;;;;;;;;;12.75;10.25;;;;;;;;6490567;31;8906;-68
2024/04/09 14:24:01;;;;;;;;;28.00;25.33;;;;;;;;6490061;31;8895;-67
2024/04/09 14:30:07;;;;;;;;;60.50;48.75;;;;;;;;6490154;47;8909;-68
2024/04/09 14:36:10;;;;;;;;;64.33;50.67;;;;;;;;6490857;46;8988;-68
2024/04/09 14:42:13;;;;;;;;;6.00;6.00;;;;;;;;6491570;46;9005;-67
2024/04/09 14:48:16;;;;;;;;;7.50;6.75;;;;;;;;6491860;46;8967;-68
2024/04/09 14:54:17;;;;;;;;;25.75;22.75;;;;;;;;6491709;39;9034;-67
2024/04/09 15:00:18;;;;;;;;;33.00;30.33;;;;;;;;6491181;46;9015;-67
2024/04/09 15:06:23;;;;;;;;;63.33;49.67;;;;;;;;6492037;39;8908;-68
2024/04/09 15:12:27;;;;;;;;;8.50;8.50;;;;;;;;6491109;46;9060;-68
2024/04/09 15:18:31;;;;;;;;;7.00;7.00;;;;;;;;6491716;31;9040;-64
2024/04/09 15:24:32;;;;;;;;;7.00;7.00;;;;;;;;6490780;39;8906;-64
2024/04/09 15:30:34;;;;;;;;;13.33;13.33;;;;;;;;6490711;46;8884;-64
2024/04/09 15:36:35;;;;;;;;;7.33;7.33;;;;;;;;6490896;31;8933;-63
2024/04/09 15:42:40;;;;;;;;;11.00;9.50;;;;;;;;6491950;39;9509;-64
2024/04/09 15:48:42;;;;;;;;;38.00;31.67;;;;;;;;6491372;39;8851;-63
2024/04/09 15:54:44;;;;;;;;;12.00;12.00;;;;;;;;6491522;39;9020;-63
2024/04/09 16:00:46;;;;;;;;;6.00;6.00;;;;;;;;6491433;39;9077;-61
2024/04/09 16:06:47;;;;;;;;;8.50;8.50;;;;;;;;6491121;31;8898;-63
2024/04/09 16:12:49;;;;;;;;;11.00;10.00;;;;;;;;6490638;46;8912;-62
2024/04/09 16:18:52;;;;;;;;;12.00;12.00;;;;;;;;6491324;39;9631;-63
2024/04/09 16:24:53;;;;;;;;;24.00;20.33;;;;;;;;6491035;39;9607;-64
2024/04/09 16:30:56;;;;;;;;;37.00;32.67;;;;;;;;6491118;39;8877;-64
2024/04/09 16:36:58;;;;;;;;;14.00;14.00;;;;;;;;6489919;39;9474;-61
2024/04/09 16:43:00;;;;;;;;;19.67;17.00;;;;;;;;6491416;39;8905;-63
2024/04/09 16:49:06;;;;;;;;;23.67;23.67;;;;;;;;6490332;39;8989;-63
2024/04/09 16:55:08;;;;;;;;;13.33;13.33;;;;;;;;6491001;39;8888;-62
2024/04/09 17:01:11;;;;;;;;;19.67;17.33;;;;;;;;6490753;39;9522;-63
2024/04/09 17:07:15;;;;;;;;;17.33;15.00;;;;;;;;6490996;39;9577;-63
2024/04/09 17:13:16;;;;;;;;;15.33;14.33;;;;;;;;6490326;31;8917;-63
2024/04/09 17:19:16;;;;;;;;;20.33;20.33;;;;;;;;6490306;39;9515;-63
2024/04/09 17:25:19;;;;;;;;;15.67;14.67;;;;;;;;6489911;39;8861;-62
2024/04/09 17:31:20;;;;;;;;;13.33;13.33;;;;;;;;6489529;39;9012;-63
2024/04/09 17:37:21;;;;;;;;;21.67;20.67;;;;;;;;6490093;39;8994;-64
2024/04/09 17:43:23;;;;;;;;;29.33;26.67;;;;;;;;6490119;39;8897;-62
2024/04/09 17:49:25;;;;;;;;;19.00;19.00;;;;;;;;6489984;31;8846;-63
2024/04/09 17:55:26;;;;;;;;;13.00;13.00;;;;;;;;6489483;47;8925;-62
2024/04/09 18:01:29;;;;;;;;;16.00;15.00;;;;;;;;6490858;39;8947;-63
2024/04/09 18:07:36;;;;;;;;;12.00;12.00;;;;;;;;6490355;39;9031;-63
2024/04/09 18:13:40;;;;;;;;;20.00;19.67;;;;;;;;6491674;46;8989;-63
2024/04/09 18:19:43;;;;;;;;;30.33;28.67;;;;;;;;6491076;46;8949;-62
2024/04/09 18:25:54;;;;;;;;;19.33;16.33;;;;;;;;6491353;46;8953;-62
2024/04/09 18:31:55;;;;;;;;;16.33;16.33;;;;;;;;6492172;39;8865;-64
2024/04/09 18:37:57;;;;;;;;;13.00;13.00;;;;;;;;6492156;39;9545;-63
2024/04/09 18:43:58;;;;;;;;;14.00;14.00;;;;;;;;6491491;39;9088;-64
2024/04/09 18:50:03;;;;;;;;;20.67;17.67;;;;;;;;6492211;31;8882;-64
2024/04/09 18:56:05;;;;;;;;;16.33;15.00;;;;;;;;6491367;46;8971;-61
2024/04/09 19:02:08;;;;;;;;;17.00;15.67;;;;;;;;6491719;39;8910;-61
2024/04/09 19:08:10;;;;;;;;;16.33;14.00;;;;;;;;6491118;39;9492;-62
2024/04/09 19:14:11;;;;;;;;;17.00;14.33;;;;;;;;6490736;39;8981;-63
2024/04/09 19:20:13;;;;;;;;;16.00;15.00;;;;;;;;6491345;31;8936;-62
2024/04/09 19:26:16;;;;;;;;;12.33;12.00;;;;;;;;6490798;39;8898;-63
2024/04/09 19:32:18;;;;;;;;;13.00;11.67;;;;;;;;6491774;31;9042;-64
2024/04/09 19:38:20;;;;;;;;;17.00;14.00;;;;;;;;6491373;39;9020;-61
2024/04/09 19:44:21;;;;;;;;;16.00;14.67;;;;;;;;6491173;46;8931;-63
2024/04/09 19:50:23;;;;;;;;;12.33;11.67;;;;;;;;6491399;46;8882;-61
2024/04/09 19:56:26;;;;;;;;;15.67;13.67;;;;;;;;6491487;39;8958;-63
2024/04/09 20:02:33;;;;;;;;;16.33;15.33;;;;;;;;6491993;31;9005;-63
2024/04/09 20:08:36;;;;;;;;;15.00;15.00;;;;;;;;6490901;39;8989;-63
2024/04/09 20:14:38;;;;;;;;;12.00;12.00;;;;;;;;6490240;46;8920;-63
2024/04/09 20:20:39;;;;;;;;;17.33;16.67;;;;;;;;6491566;39;9040;-62
2024/04/09 20:26:41;;;;;;;;;15.33;15.33;;;;;;;;6491069;39;8933;-63
2024/04/09 20:32:43;;;;;;;;;17.67;17.00;;;;;;;;6490733;46;8889;-63
2024/04/09 20:38:47;;;;;;;;;13.67;13.67;;;;;;;;6489932;39;8981;-63
2024/04/09 20:44:49;;;;;;;;;14.00;13.00;;;;;;;;6491627;31;9028;-63
2024/04/09 20:50:50;;;;;;;;;13.00;13.00;;;;;;;;6490516;39;8895;-62
2024/04/09 20:56:55;;;;;;;;;20.67;17.67;;;;;;;;6490794;39;8913;-62
2024/04/09 21:02:57;;;;;;;;;12.33;12.33;;;;;;;;6489892;39;9017;-62
2024/04/09 21:09:00;;;;;;;;;15.00;13.33;;;;;;;;6489910;46;8931;-61
2024/04/09 21:15:03;;;;;;;;;14.00;13.33;;;;;;;;6490404;39;8882;-62
2024/04/09 21:21:04;;;;;;;;;15.33;13.33;;;;;;;;6489673;39;9100;-62
2024/04/09 21:27:07;;;;;;;;;15.00;13.33;;;;;;;;6489956;46;9009;-64
2024/04/09 21:33:10;;;;;;;;;13.67;13.00;;;;;;;;6490795;39;9513;-62
2024/04/09 21:39:11;;;;;;;;;11.33;11.33;;;;;;;;6490988;39;8878;-63
2024/04/09 21:45:13;;;;;;;;;15.33;15.33;;;;;;;;6491706;46;8911;-62
2024/04/09 21:51:13;;;;;;;;;14.33;14.33;;;;;;;;6492376;39;8896;-62
2024/04/09 21:57:14;;;;;;;;;15.33;14.33;;;;;;;;6493202;31;9015;-62
2024/04/09 22:03:15;;;;;;;;;13.33;13.33;;;;;;;;6492279;39;8963;-62
2024/04/09 22:09:16;;;;;;;;;17.67;17.00;;;;;;;;6491866;31;8858;-61
2024/04/09 22:15:17;;;;;;;;;16.00;16.00;;;;;;;;6492276;39;9032;-62
2024/04/09 22:21:18;;;;;;;;;17.67;15.33;;;;;;;;6491890;39;8886;-61
2024/04/09 22:27:20;;;;;;;;;18.67;17.33;;;;;;;;6492001;39;8927;-61
2024/04/09 22:33:21;;;;;;;;;18.25;17.25;;;;;;;;6491454;39;8969;-61
2024/04/09 22:39:22;;;;;;;;;19.00;18.00;;;;;;;;6491560;46;8952;-63
2024/04/09 22:45:24;;;;;;;;;20.33;18.33;;;;;;;;6491895;46;9046;-64
2024/04/09 22:51:25;;;;;;;;;21.67;18.67;;;;;;;;6490733;39;8942;-64
2024/04/09 22:57:26;;;;;;;;;14.67;14.33;;;;;;;;6491396;39;9026;-62
2024/04/09 23:03:30;;;;;;;;;13.33;10.00;;;;;;;;6492003;31;8999;-61
2024/04/09 23:09:32;;;;;;;;;13.00;12.00;;;;;;;;6548767;36;8878;-61
2024/04/09 23:15:33;;;;;;;;;13.67;13.00;;;;;;;;6491452;31;9011;-63
2024/04/09 23:21:34;;;;;;;;;18.33;17.00;;;;;;;;6491192;46;8923;-62
2024/04/09 23:27:36;;;;;;;;;26.75;23.00;;;;;;;;6491703;39;9030;-61
2024/04/09 23:33:38;;;;;;;;;23.75;21.75;;;;;;;;6491129;46;8901;-62
2024/04/09 23:39:39;;;;;;;;;29.00;27.00;;;;;;;;6491509;39;8965;-63
2024/04/09 23:45:40;;;;;;;;;31.75;29.75;;;;;;;;6492091;39;8985;-63
2024/04/09 23:51:42;;;;;;;;;32.00;28.75;;;;;;;;6491159;46;8900;-60
2024/04/09 23:57:43;;;;;;;;;29.50;29.00;;;;;;;;6490786;39;9015;-62
